Flight Track Log - Related Links

Times and Time Zones

All times are in EDT time to prevent confusion due to time zone crossing. See the SWA1046 flight status page for this flight to view local times or setup timezone preferences in your user account.

Time Position Orientation Groundspeed Altitude Reporting Facility
EDT Latitude Longitude Course Direction KTS MPH feet Rate Location/Type
Thu 08:37:32 PM 41.7981 -87.7783 223° Southwest 152 175 38,000  Level Chicago Center
Thu 08:38:34 PM 41.7619 -87.8242 223° Southwest 213 245 3,400 -14,371 Descending Chicago Center
Thu 08:39:36 PM 41.6756 -87.8436 190° South 262 302 8,300 4,016 Climbing Chicago Center
Thu 08:40:38 PM 41.5936 -87.8542 186° South 293 337 11,700 1,984 Climbing Chicago Center
Thu 08:41:40 PM 41.5061 -87.8647 185° South 310 357 12,400 1,645 Climbing Chicago Center
Thu 08:42:42 PM 41.4078 -87.8408 170° South 352 405 15,100 2,710 Climbing Chicago Center
Thu 08:43:44 PM 41.3025 -87.8167 170° South 378 435 18,000 2,758 Climbing Chicago Center
Thu 08:44:46 PM 41.1936 -87.7906 170° South 392 451 20,800 2,496 Climbing Chicago Center
Thu 08:45:49 PM 41.0781 -87.7631 170° South 416 479 23,200 2,448 Climbing Chicago Center
Thu 08:46:51 PM 40.9331 -87.7281 170° South 438 504 25,900 2,274 Climbing Chicago Center
Thu 08:47:53 PM 40.8094 -87.6989 170° South 451 519 27,900 1,839 Climbing Chicago Center
Thu 08:48:55 PM 40.6817 -87.6692 170° South 463 533 29,700 1,548 Climbing Chicago Center
Thu 08:49:57 PM 40.5511 -87.6383 170° South 476 548 31,100 1,548 Climbing Chicago Center
Thu 08:50:59 PM 40.4164 -87.6069 170° South 490 564 32,900 1,790 Climbing Chicago Center
Thu 08:52:01 PM 40.2567 -87.5700 170° South 488 562 34,800 1,645 Climbing Chicago Center
Thu 08:53:03 PM 40.1169 -87.5394 171° South 491 565 36,300 1,243 Climbing Chicago Center
Thu 08:53:52 PM 40.0261 -87.5431 182° South 472 543 37,100 1,091 Climbing Indianapolis Center
Thu 08:54:53 PM 39.8964 -87.5594 186° South 468 539 38,300 934 Climbing Indianapolis Center
Thu 08:55:54 PM 39.7464 -87.5800 186° South 463 533 39,000 341 Climbing Indianapolis Center
Thu 08:56:56 PM 39.6189 -87.5961 186° South 460 529 39,000  Level Indianapolis Center
Thu 08:57:57 PM 39.4875 -87.5786 174° South 471 542 39,000  Level Indianapolis Center
Thu 08:58:59 PM 39.3525 -87.5389 167° South 488 562 39,000  Level Indianapolis Center
Thu 09:00:00 PM 39.2192 -87.5014 168° South 490 564 39,000  Level Indianapolis Center
Thu 09:01:01 PM 39.0867 -87.4661 168° South 484 557 39,000  Level Indianapolis Center
Thu 09:02:03 PM 38.9553 -87.4292 168° South 483 556 39,000  Level Indianapolis Center
Thu 09:03:04 PM 38.8233 -87.3936 168° South 484 557 39,000  Level Indianapolis Center
Thu 09:04:06 PM 38.6897 -87.3564 168° South 488 562 39,000  Level Indianapolis Center
Thu 09:05:07 PM 38.5575 -87.3211 168° South 486 559 39,000  Level Indianapolis Center
Thu 09:06:08 PM 38.3981 -87.2778 168° South 489 563 39,000  Level Indianapolis Center
Thu 09:07:10 PM 38.2675 -87.2436 168° South 489 563 39,000  Level Indianapolis Center
Thu 09:08:11 PM 38.1369 -87.2083 168° South 490 564 39,000  Level Indianapolis Center
Thu 09:09:12 PM 38.0061 -87.1731 168° South 485 558 39,000  Level Indianapolis Center
Thu 09:10:14 PM 37.8756 -87.1375 168° South 481 554 39,000  Level Indianapolis Center
Thu 09:11:15 PM 37.7456 -87.1028 168° South 478 550 39,000  Level Indianapolis Center
Thu 09:12:16 PM 37.6156 -87.0672 168° South 476 548 39,000  Level Indianapolis Center
Thu 09:13:18 PM 37.4728 -87.0333 169° South 475 547 39,000  Level Indianapolis Center
Thu 09:13:57 PM 37.3867 -87.0081 167° South 462 532 39,000  Level Memphis Center
Thu 09:14:57 PM 37.2442 -86.9750 170° South 473 544 39,000  Level Memphis Center
Thu 09:15:57 PM 37.1161 -86.9386 167° South 478 550 39,000  Level Memphis Center
Thu 09:16:57 PM 36.9858 -86.9053 168° South 478 550 39,000  Level Memphis Center
Thu 09:17:57 PM 36.8578 -86.8719 168° South 473 544 39,000  Level Memphis Center
Thu 09:18:57 PM 36.7256 -86.8364 168° South 473 544 39,000  Level Memphis Center
Thu 09:19:57 PM 36.5975 -86.8031 168° South 473 544 39,000  Level Memphis Center
Thu 09:20:57 PM 36.4714 -86.7647 166° South 473 544 39,000  Level Memphis Center
Thu 09:21:57 PM 36.3475 -86.7394 171° South 484 557 39,000  Level Memphis Center
Thu 09:22:57 PM 36.2131 -86.7042 168° South 496 571 39,000  Level Memphis Center
Thu 09:23:57 PM 36.0678 -86.6517 164° South 491 565 39,000  Level Memphis Center
Thu 09:24:57 PM 35.9364 -86.5858 158° South 502 578 39,000  Level Memphis Center
Thu 09:27:05 PM 35.6592 -86.4489 158° South 510 587 39,000  Level Atlanta Center
Thu 09:28:05 PM 35.5414 -86.3919 159° South 510 587 39,000  Level Atlanta Center
Thu 09:29:05 PM 35.4111 -86.3269 158° South 502 578 39,000  Level Atlanta Center
Thu 09:30:05 PM 35.2808 -86.2675 160° South 507 583 39,000  Level Atlanta Center
Thu 09:31:05 PM 35.1422 -86.1953 157° South 507 583 39,000  Level Atlanta Center
Thu 09:32:05 PM 35.0097 -86.1333 159° South 502 578 39,000  Level Atlanta Center
Thu 09:33:05 PM 34.8981 -86.0750 157° South 508 585 39,000  Level Atlanta Center
Thu 09:34:05 PM 34.7678 -86.0136 159° South 502 578 39,000  Level Atlanta Center
Thu 09:35:05 PM 34.6372 -85.9500 158° South 502 578 39,000  Level Atlanta Center
Thu 09:36:05 PM 34.5108 -85.8892 158° South 502 578 39,000  Level Atlanta Center
Thu 09:37:05 PM 34.3803 -85.8258 158° South 502 578 39,000  Level Atlanta Center
Thu 09:38:05 PM 34.2414 -85.7675 161° South 490 564 39,000  Level Atlanta Center
Thu 09:39:05 PM 34.1128 -85.7072 159° South 484 557 39,000  Level Atlanta Center
Thu 09:40:05 PM 33.9861 -85.6472 159° South 490 564 39,000  Level Atlanta Center
Thu 09:41:05 PM 33.8575 -85.5847 158° South 490 564 39,000  Level Atlanta Center
Thu 09:42:05 PM 33.7289 -85.5250 159° South 490 564 39,000  Level Atlanta Center
Thu 09:43:05 PM 33.6003 -85.4653 159° South 490 564 39,000  Level Atlanta Center
Thu 09:44:05 PM 33.4694 -85.4058 159° South 495 570 39,000  Level Atlanta Center
Thu 09:45:05 PM 33.3386 -85.3517 161° South 495 570 39,000  Level Atlanta Center
Thu 09:46:05 PM 33.2242 -85.3003 159° South 500 575 39,000  Level Atlanta Center
Thu 09:47:05 PM 33.0933 -85.2464 161° South 500 575 39,000  Level Atlanta Center
Thu 09:48:05 PM 32.9519 -85.1775 158° South 500 575 39,000 -300 Level Atlanta Center
Thu 09:49:05 PM 32.8333 -85.1339 163° South 500 575 38,400 -850 Descending Atlanta Center
Thu 09:50:05 PM 32.6919 -85.0681 159° South 500 575 37,300 -700 Descending Atlanta Center
Thu 09:51:05 PM 32.5797 -85.0225 161° South 495 570 37,000 -150 Descending Atlanta Center
Thu 09:52:05 PM 32.4486 -84.9667 160° South 487 560 37,000  Level Atlanta Center
Thu 09:53:05 PM 32.3217 -84.9139 161° South 487 560 37,000  Level Atlanta Center
Thu 09:54:05 PM 32.1989 -84.8686 163° South 479 551 37,000  Level Atlanta Center
Thu 09:55:05 PM 32.0739 -84.8133 159° South 479 551 37,000  Level Atlanta Center
Thu 09:56:05 PM 31.9492 -84.7608 160° South 479 551 37,000  Level Atlanta Center
Thu 09:58:28 PM 31.6431 -84.6325 160° South 488 562 37,000  Level Jacksonville Center
Thu 09:59:28 PM 31.5144 -84.5814 161° South 483 556 37,000  Level Jacksonville Center
Thu 10:00:28 PM 31.3897 -84.5281 160° South 483 556 37,000  Level Jacksonville Center
Thu 10:01:28 PM 31.2589 -84.4772 162° South 483 556 37,000  Level Jacksonville Center
Thu 10:02:28 PM 31.1342 -84.4242 160° South 483 556 37,000  Level Jacksonville Center
Thu 10:03:28 PM 31.0075 -84.3736 161° South 483 556 37,000  Level Jacksonville Center
Thu 10:04:28 PM 30.8808 -84.3208 160° South 483 556 37,000  Level Jacksonville Center
Thu 10:05:28 PM 30.7558 -84.2728 162° South 483 556 37,000  Level Jacksonville Center
Thu 10:06:28 PM 30.6292 -84.2228 161° South 483 556 37,000  Level Jacksonville Center
Thu 10:07:28 PM 30.4939 -84.1656 160° South 483 556 37,000  Level Jacksonville Center
Thu 10:08:28 PM 30.3692 -84.1156 161° South 473 544 37,000  Level Jacksonville Center
Thu 10:09:28 PM 30.2422 -84.0636 161° South 479 551 37,000  Level Jacksonville Center
Thu 10:10:28 PM 30.1175 -84.0164 162° South 479 551 37,000  Level Jacksonville Center
Thu 10:11:28 PM 29.9928 -83.9647 160° South 479 551 37,000  Level Jacksonville Center
Thu 10:12:28 PM 29.8678 -83.9153 161° South 479 551 37,000  Level Jacksonville Center
Thu 10:13:28 PM 29.7453 -83.8469 154° Southeast 479 551 37,000  Level Jacksonville Center
Thu 10:14:28 PM 29.6289 -83.7742 151° Southeast 479 551 37,000  Level Jacksonville Center
Thu 10:15:28 PM 29.5103 -83.6992 151° Southeast 479 551 37,000  Level Jacksonville Center
Thu 10:16:28 PM 29.3897 -83.6219 151° Southeast 485 558 37,000  Level Jacksonville Center
Thu 10:17:28 PM 29.2731 -83.5472 151° Southeast 485 558 37,000 -150 Level Jacksonville Center
Thu 10:18:28 PM 29.1669 -83.4753 149° Southeast 485 558 36,700 -650 Descending Jacksonville Center
Thu 10:19:28 PM 29.0483 -83.4033 152° Southeast 485 558 35,700 -1,000 Descending Jacksonville Center
Thu 10:20:28 PM 28.9275 -83.3314 152° Southeast 480 552 34,700 -950 Descending Jacksonville Center
Thu 10:21:28 PM 28.8047 -83.2858 162° South 470 541 33,800 -950 Descending Jacksonville Center
Thu 10:22:28 PM 28.6794 -83.2381 161° South 470 541 32,800 -950 Descending Jacksonville Center
Thu 10:23:28 PM 28.5503 -83.1928 163° South 476 548 31,900 -1,000 Descending Jacksonville Center
Thu 10:25:28 PM 28.3044 -83.1042 162° South 468 539 29,800 -1,061 Descending Miami Center
Thu 10:26:29 PM 28.1856 -83.0597 162° South 468 539 28,700 -1,377 Descending Miami Center
Thu 10:27:30 PM 28.0686 -83.0158 162° South 457 526 27,000 -843 Descending Miami Center
Thu 10:28:30 PM 27.9519 -82.9625 158° South 452 520 27,000  Level Miami Center
Thu 10:29:29 PM 27.8372 -82.9117 159° South 452 520 27,000  Level Miami Center
Thu 10:30:28 PM 27.7064 -82.8508 158° South 444 511 27,000  Level Miami Center
Thu 10:31:29 PM 27.6058 -82.8058 158° South 451 519 27,000 -350 Level Miami Center
Thu 10:32:28 PM 27.4933 -82.7533 158° South 440 506 26,300 -1,563 Descending Miami Center
Thu 10:33:28 PM 27.3683 -82.7000 159° South 440 506 23,900 -2,182 Descending Miami Center
Thu 10:34:29 PM 27.2617 -82.6503 157° South 424 488 21,900 -1,869 Descending Miami Center
Thu 10:35:30 PM 27.1847 -82.5906 145° Southeast 404 465 20,100 -1,835 Descending Miami Center
Thu 10:36:30 PM 27.0997 -82.5233 145° Southeast 391 450 18,200 -1,932 Descending Miami Center
Thu 10:37:28 PM 27.0106 -82.4561 146° Southeast 386 444 16,300 -1,714 Descending Miami Center
Thu 10:38:29 PM 26.9297 -82.3892 144° Southeast 376 433 14,800 -1,672 Descending Miami Center
Thu 10:39:30 PM 26.8486 -82.3272 146° Southeast 364 419 12,900 -1,785 Descending Miami Center
Thu 10:40:30 PM 26.7675 -82.2608 144° Southeast 364 419 11,200 -1,475 Descending Miami Center
Thu 10:41:28 PM 26.6986 -82.2064 145° Southeast 344 396 10,000 -1,424 Descending Miami Center
Thu 10:42:28 PM 26.6339 -82.1525 143° Southeast 311 358 8,400 -1,700 Descending Miami Center
Thu 10:43:28 PM 26.5839 -82.0922 133° Southeast 283 326 6,600 -1,721 Descending Miami Center
Thu 10:44:30 PM 26.5336 -82.0342 134° Southeast 268 308 4,900 -1,300 Descending Miami Center
Thu 10:45:28 PM 26.4836 -81.9739 133° Southeast 263 303 4,000 -931 Descending Miami Center
Thu 10:47:00 PM 26.4627 -81.8511 56° Northeast  Level FlightAware Approximate
Thu 10:54:00 PM 26.5333 -81.7500 50° Northeast  Level FlightAware Approximate
Thu 10:55:00 PM 26.5362 -81.7552 50° Northeast  Level Estimated
Thu 10:56:00 PM 26.5333 -81.7500 50° Northeast  Level FlightAware Approximate
Thu 10:57:00 PM 26.5362 -81.7552 50° Northeast  Level Estimated

Login

Don't have an account? Register now (free) for customized features, flight alerts, and more!